createdAt,value
2019-04-04T00:00:37.000Z,0.0
2019-04-04T00:03:29.816Z,0.0
2019-04-04T00:06:29.706Z,0.0
2019-04-04T00:09:31.188Z,0.0
2019-04-04T00:12:29.750Z,0.0
2019-04-04T00:15:30.324Z,0.0
2019-04-04T00:18:30.364Z,0.0
2019-04-04T00:21:32.021Z,0.0
2019-04-04T00:24:30.338Z,0.0
2019-04-04T00:27:30.008Z,0.0
2019-04-04T00:30:31.060Z,0.0
2019-04-04T00:37:00.176Z,0.0
2019-04-04T00:39:29.418Z,0.0
2019-04-04T00:45:35.754Z,0.0
2019-04-04T00:48:37.227Z,0.0
2019-04-04T00:51:39.140Z,0.0
2019-04-04T00:54:30.064Z,0.0
2019-04-04T00:57:31.788Z,0.0
2019-04-04T01:00:30.109Z,0.0
2019-04-04T01:03:30.077Z,0.0
2019-04-04T01:06:29.624Z,0.0
2019-04-04T01:12:30.397Z,0.0
2019-04-04T01:15:31.191Z,0.0
2019-04-04T01:18:29.957Z,0.0
2019-04-04T01:21:29.863Z,0.0
2019-04-04T01:24:29.956Z,0.0
2019-04-04T01:27:29.702Z,0.0
2019-04-04T01:30:29.300Z,0.0
2019-04-04T01:33:37.615Z,0.0
2019-04-04T01:36:29.319Z,0.0
2019-04-04T01:45:30.161Z,0.0
2019-04-04T01:52:02.988Z,0.0
2019-04-04T01:54:40.137Z,0.0
2019-04-04T01:57:34.423Z,0.0
2019-04-04T02:00:30.653Z,0.0
2019-04-04T02:03:30.579Z,0.0
2019-04-04T02:06:30.640Z,0.0
2019-04-04T02:09:33.796Z,0.0
2019-04-04T02:12:30.337Z,0.0
2019-04-04T02:15:30.183Z,0.0
2019-04-04T02:18:31.280Z,0.0
2019-04-04T02:21:34.788Z,0.0
2019-04-04T02:24:31.637Z,0.0
2019-04-04T02:27:30.397Z,0.0
2019-04-04T02:30:30.553Z,0.0
2019-04-04T02:33:34.489Z,0.0
2019-04-04T02:36:30.729Z,0.0
2019-04-04T02:42:30.179Z,0.0
2019-04-04T02:45:29.869Z,0.0
2019-04-04T02:48:29.917Z,0.0
2019-04-04T02:51:29.530Z,0.0
2019-04-04T02:54:58.245Z,0.0
2019-04-04T03:00:29.751Z,0.0
2019-04-04T03:04:02.597Z,0.0
2019-04-04T03:27:34.966Z,0.0
2019-04-04T03:36:33.009Z,0.0
2019-04-04T03:39:33.735Z,0.0
2019-04-04T03:42:30.472Z,0.0
2019-04-04T03:45:40.083Z,0.0
2019-04-04T03:48:31.766Z,0.0
2019-04-04T03:51:29.579Z,0.0
2019-04-04T03:54:30.661Z,0.0
2019-04-04T03:57:29.158Z,0.0
2019-04-04T04:00:32.139Z,0.0
2019-04-04T04:03:30.020Z,0.0
2019-04-04T04:06:29.976Z,0.0
2019-04-04T04:09:29.921Z,0.0
2019-04-04T04:15:30.702Z,0.0
2019-04-04T04:18:30.439Z,0.0
2019-04-04T04:21:30.281Z,0.0
2019-04-04T04:24:30.401Z,0.0
2019-04-04T04:27:30.175Z,0.0
2019-04-04T04:30:30.309Z,0.0
2019-04-04T04:33:30.317Z,0.0
2019-04-04T04:36:30.696Z,0.0
2019-04-04T04:39:30.301Z,0.0
2019-04-04T04:42:30.526Z,0.0
2019-04-04T04:45:38.595Z,0.0
2019-04-04T04:48:31.800Z,0.0
2019-04-04T04:54:29.910Z,0.0
2019-04-04T04:57:43.194Z,0.0
2019-04-04T05:00:30.671Z,0.0
2019-04-04T05:03:30.297Z,0.0
2019-04-04T05:06:30.306Z,0.0
2019-04-04T05:13:01.877Z,0.0
2019-04-04T05:18:31.427Z,0.0
2019-04-04T05:21:38.859Z,0.01
2019-04-04T05:24:31.087Z,0.01
2019-04-04T05:27:30.366Z,0.01
2019-04-04T05:30:30.701Z,0.01
2019-04-04T05:33:31.569Z,0.0
2019-04-04T05:36:30.218Z,0.0
2019-04-04T05:39:31.358Z,0.0
2019-04-04T05:42:32.814Z,0.02
2019-04-04T05:45:29.595Z,0.0
2019-04-04T05:48:29.898Z,0.02
2019-04-04T05:51:30.442Z,0.0
2019-04-04T05:56:40.205Z,0.0
2019-04-04T05:57:30.761Z,0.03
2019-04-04T06:00:29.678Z,0.0
2019-04-04T06:03:30.597Z,0.04
2019-04-04T06:12:30.564Z,0.0
2019-04-04T06:27:30.472Z,0.03
2019-04-04T06:30:42.640Z,0.0
2019-04-04T06:33:30.359Z,0.0
2019-04-04T06:36:31.595Z,0.04
2019-04-04T06:39:30.162Z,0.01
2019-04-04T06:42:35.467Z,0.02
2019-04-04T06:45:30.582Z,0.06
2019-04-04T06:48:33.518Z,0.01
2019-04-04T06:51:30.407Z,0.05
2019-04-04T06:54:30.536Z,0.04
2019-04-04T06:57:30.162Z,0.04
2019-04-04T07:00:30.746Z,0.04
2019-04-04T07:03:30.202Z,0.04
2019-04-04T07:06:30.520Z,0.0
2019-04-04T07:09:32.452Z,0.05
2019-04-04T07:12:40.186Z,0.07
2019-04-04T07:15:30.787Z,0.08
2019-04-04T07:18:30.134Z,0.04
2019-04-04T07:21:30.422Z,0.08
2019-04-04T07:24:31.142Z,0.04
2019-04-04T07:27:30.699Z,0.02
2019-04-04T07:30:30.761Z,0.06
2019-04-04T07:33:30.133Z,0.07
2019-04-04T07:36:30.366Z,0.07
2019-04-04T07:39:32.705Z,0.03
2019-04-04T07:42:30.684Z,0.04
2019-04-04T07:45:33.557Z,0.04
2019-04-04T07:48:31.821Z,0.09
2019-04-04T07:51:30.870Z,0.05
2019-04-04T07:54:31.864Z,0.1
2019-04-04T07:57:32.956Z,0.06
2019-04-04T08:00:30.095Z,0.13
2019-04-04T08:03:30.443Z,0.16
2019-04-04T08:06:33.357Z,0.16
2019-04-04T08:09:31.380Z,0.07
2019-04-04T08:12:29.686Z,0.13
2019-04-04T08:15:30.290Z,0.1
2019-04-04T08:18:30.465Z,0.09
2019-04-04T08:21:29.816Z,0.11
2019-04-04T08:24:30.146Z,0.11
2019-04-04T08:27:31.908Z,0.13
2019-04-04T08:30:30.327Z,0.18
2019-04-04T08:33:30.538Z,0.17
2019-04-04T08:36:29.817Z,0.17
2019-04-04T08:39:30.133Z,0.17
2019-04-04T08:42:30.539Z,0.18
2019-04-04T08:45:29.610Z,0.16
2019-04-04T08:48:29.666Z,0.18
2019-04-04T08:51:30.219Z,0.1
2019-04-04T08:54:30.718Z,0.12
2019-04-04T08:57:30.335Z,0.14
2019-04-04T09:00:30.502Z,0.13
2019-04-04T09:03:29.697Z,0.14
2019-04-04T09:06:29.822Z,0.15
2019-04-04T09:09:30.089Z,0.13
2019-04-04T09:12:29.535Z,0.14
2019-04-04T09:15:29.844Z,0.12
2019-04-04T09:18:30.049Z,0.09
2019-04-04T09:21:30.558Z,0.1
2019-04-04T09:24:29.539Z,0.16
2019-04-04T09:27:30.211Z,0.16
2019-04-04T09:30:33.963Z,0.18
2019-04-04T09:33:30.165Z,0.16
2019-04-04T09:36:34.427Z,0.15
2019-04-04T09:39:29.509Z,0.17
2019-04-04T09:42:30.023Z,0.2
2019-04-04T09:45:30.219Z,0.19
2019-04-04T09:48:30.602Z,0.17
2019-04-04T09:51:29.856Z,0.17
2019-04-04T09:54:29.980Z,0.16
2019-04-04T09:57:30.061Z,0.16
2019-04-04T10:00:30.323Z,0.17
2019-04-04T10:03:30.391Z,0.16
2019-04-04T10:06:30.623Z,0.11
2019-04-04T10:09:30.779Z,0.14
2019-04-04T10:12:29.811Z,0.08
2019-04-04T10:15:30.311Z,0.06
2019-04-04T10:18:30.605Z,0.1
2019-04-04T10:21:30.085Z,0.12
2019-04-04T10:24:30.596Z,0.07
2019-04-04T10:27:29.574Z,0.15
2019-04-04T10:30:30.113Z,0.18
2019-04-04T10:33:30.149Z,0.19
2019-04-04T10:36:30.278Z,0.14
2019-04-04T10:39:42.280Z,0.16
2019-04-04T10:42:30.553Z,0.22
2019-04-04T10:45:29.708Z,0.24
2019-04-04T10:48:29.861Z,0.23
2019-04-04T10:51:30.071Z,0.18
2019-04-04T10:54:30.545Z,0.27
2019-04-04T10:57:29.405Z,0.24
2019-04-04T11:00:30.649Z,0.16
2019-04-04T11:03:29.743Z,0.24
2019-04-04T11:06:29.781Z,0.3
2019-04-04T11:09:41.267Z,0.25
2019-04-04T11:12:30.671Z,0.26
2019-04-04T11:15:30.481Z,0.22
2019-04-04T11:18:29.510Z,0.24
2019-04-04T11:21:30.165Z,0.22
2019-04-04T11:24:30.673Z,0.27
2019-04-04T11:27:31.168Z,0.31
2019-04-04T11:30:30.406Z,0.24
2019-04-04T11:33:30.700Z,0.27
2019-04-04T11:36:30.093Z,0.43
2019-04-04T11:39:30.021Z,0.44
2019-04-04T11:42:30.261Z,0.38
2019-04-04T11:45:30.558Z,0.34
2019-04-04T11:48:29.799Z,0.33
2019-04-04T11:51:30.307Z,0.36
2019-04-04T11:54:30.593Z,0.32
2019-04-04T11:57:29.695Z,0.36
2019-04-04T12:00:33.478Z,0.35
2019-04-04T12:03:30.576Z,0.33
2019-04-04T12:06:29.599Z,0.37
2019-04-04T12:09:29.544Z,0.23
2019-04-04T12:12:29.469Z,0.19
2019-04-04T12:15:30.700Z,0.19
2019-04-04T12:18:29.629Z,0.17
2019-04-04T12:21:29.845Z,0.22
2019-04-04T12:24:29.824Z,0.22
2019-04-04T12:27:30.001Z,0.2
2019-04-04T12:30:29.547Z,0.21
2019-04-04T12:33:29.487Z,0.2
2019-04-04T12:36:38.386Z,0.19
2019-04-04T12:39:30.759Z,0.17
2019-04-04T12:42:29.831Z,0.11
2019-04-04T12:45:29.745Z,0.16
2019-04-04T12:48:29.646Z,0.14
2019-04-04T12:51:29.659Z,0.18
2019-04-04T12:54:29.831Z,0.24
2019-04-04T12:57:29.801Z,0.17
2019-04-04T13:00:29.726Z,0.11
2019-04-04T13:03:29.647Z,0.15
2019-04-04T13:06:29.850Z,0.17
2019-04-04T13:09:29.879Z,0.13
2019-04-04T13:12:29.784Z,0.11
2019-04-04T13:15:30.044Z,0.18
2019-04-04T13:18:30.252Z,0.2
2019-04-04T13:21:30.477Z,0.13
2019-04-04T13:24:30.587Z,0.13
2019-04-04T13:27:31.315Z,0.16
2019-04-04T13:30:30.366Z,0.12
2019-04-04T13:33:30.356Z,0.18
2019-04-04T13:36:30.394Z,0.14
2019-04-04T13:39:30.371Z,0.21
2019-04-04T13:42:30.267Z,0.21
2019-04-04T13:45:30.382Z,0.21
2019-04-04T13:48:30.217Z,0.24
2019-04-04T13:51:30.237Z,0.23
2019-04-04T13:54:30.166Z,0.19
2019-04-04T13:57:30.251Z,0.18
2019-04-04T14:00:30.389Z,0.12
2019-04-04T14:03:32.197Z,0.13
2019-04-04T14:06:30.094Z,0.08
2019-04-04T14:09:45.341Z,0.1
2019-04-04T14:12:37.786Z,0.21
2019-04-04T14:15:40.700Z,0.21
2019-04-04T14:18:39.833Z,0.16
2019-04-04T14:21:38.891Z,0.19
2019-04-04T14:24:40.492Z,0.18
2019-04-04T14:27:45.470Z,0.14
2019-04-04T14:30:38.132Z,0.11
2019-04-04T14:33:30.350Z,0.12
2019-04-04T14:36:30.397Z,0.14
2019-04-04T14:39:30.688Z,0.25
2019-04-04T14:42:29.231Z,0.24
2019-04-04T14:45:34.119Z,0.2
2019-04-04T14:48:29.784Z,0.28
2019-04-04T14:51:29.653Z,0.26
2019-04-04T14:54:29.974Z,0.36
2019-04-04T14:57:30.092Z,0.34
2019-04-04T15:00:30.756Z,0.29
2019-04-04T15:03:30.851Z,0.27
2019-04-04T15:06:29.879Z,0.27
2019-04-04T15:09:29.584Z,0.17
2019-04-04T15:12:29.619Z,0.23
2019-04-04T15:15:29.787Z,0.48
2019-04-04T15:18:29.814Z,0.6
2019-04-04T15:21:29.741Z,0.65
2019-04-04T15:24:29.844Z,0.5
2019-04-04T15:27:30.486Z,0.47
2019-04-04T15:30:29.429Z,0.43
2019-04-04T15:33:29.266Z,0.43
2019-04-04T15:36:30.131Z,0.26
2019-04-04T15:39:30.798Z,0.2
2019-04-04T15:42:29.931Z,0.22
2019-04-04T15:45:29.801Z,0.21
2019-04-04T15:48:29.985Z,0.25
2019-04-04T15:51:29.899Z,0.22
2019-04-04T15:54:29.623Z,0.2
2019-04-04T15:57:29.268Z,0.15
2019-04-04T16:00:30.684Z,0.15
2019-04-04T16:03:29.958Z,0.11
2019-04-04T16:06:29.896Z,0.13
2019-04-04T16:09:30.067Z,0.18
2019-04-04T16:12:30.033Z,0.28
2019-04-04T16:15:30.493Z,0.27
2019-04-04T16:18:29.853Z,0.19
2019-04-04T16:21:30.265Z,0.16
2019-04-04T16:24:30.259Z,0.18
2019-04-04T16:27:30.497Z,0.11
2019-04-04T16:30:33.517Z,0.14
2019-04-04T16:33:31.718Z,0.13
2019-04-04T16:36:30.857Z,0.1
2019-04-04T16:39:29.868Z,0.04
2019-04-04T16:42:30.034Z,0.03
2019-04-04T16:45:30.519Z,0.05
2019-04-04T16:48:29.467Z,0.11
2019-04-04T16:51:29.499Z,0.05
2019-04-04T16:54:29.254Z,0.05
2019-04-04T16:57:30.359Z,0.09
2019-04-04T17:00:30.715Z,0.03
2019-04-04T17:03:30.095Z,0.07
2019-04-04T17:06:30.237Z,0.06
2019-04-04T17:09:30.720Z,0.02
2019-04-04T17:12:30.453Z,0.05
2019-04-04T17:15:29.746Z,0.04
2019-04-04T17:18:31.102Z,0.04
2019-04-04T17:21:30.608Z,0.0
2019-04-04T17:24:29.527Z,0.04
2019-04-04T17:27:29.506Z,0.0
2019-04-04T17:30:30.111Z,0.0
2019-04-04T17:33:30.981Z,0.02
2019-04-04T17:36:30.648Z,0.0
2019-04-04T17:39:29.394Z,0.02
2019-04-04T17:42:45.234Z,0.02
2019-04-04T17:45:31.214Z,0.0
2019-04-04T17:48:32.152Z,0.0
2019-04-04T17:51:30.579Z,0.0
2019-04-04T17:54:30.330Z,0.0
2019-04-04T17:57:30.538Z,0.01
2019-04-04T18:00:30.784Z,0.01
2019-04-04T18:03:29.365Z,0.01
2019-04-04T18:06:30.602Z,0.0
2019-04-04T18:09:37.271Z,0.0
2019-04-04T18:12:40.095Z,0.0
2019-04-04T18:15:30.973Z,0.0
2019-04-04T18:18:30.353Z,0.0
2019-04-04T18:21:30.484Z,0.0
2019-04-04T18:24:36.035Z,0.0
2019-04-04T18:27:45.618Z,0.0
2019-04-04T18:33:53.887Z,0.0
2019-04-04T18:34:12.336Z,0.0
2019-04-04T18:36:51.917Z,0.0
2019-04-04T18:42:52.208Z,0.0
2019-04-04T18:43:44.472Z,0.0
2019-04-04T18:46:38.392Z,0.0
2019-04-04T18:51:29.445Z,0.0
2019-04-04T19:03:30.470Z,0.0
2019-04-04T19:06:29.701Z,0.0
2019-04-04T19:09:30.374Z,0.0
2019-04-04T19:12:30.415Z,0.0
2019-04-04T19:15:31.658Z,0.0
2019-04-04T19:18:31.329Z,0.0
2019-04-04T19:21:32.244Z,0.0
2019-04-04T19:24:30.496Z,0.0
2019-04-04T19:27:29.381Z,0.0
2019-04-04T19:30:31.115Z,0.0
2019-04-04T19:33:31.304Z,0.0
2019-04-04T19:36:30.265Z,0.0
2019-04-04T19:39:30.832Z,0.0
2019-04-04T19:42:29.642Z,0.0
2019-04-04T19:45:30.393Z,0.0
2019-04-04T19:48:31.200Z,0.0
2019-04-04T19:51:30.695Z,0.0
2019-04-04T19:54:29.717Z,0.0
2019-04-04T19:57:31.331Z,0.0
2019-04-04T20:00:32.183Z,0.0
2019-04-04T20:03:30.725Z,0.0
2019-04-04T20:06:29.300Z,0.0
2019-04-04T20:09:31.442Z,0.0
2019-04-04T20:12:30.938Z,0.0
2019-04-04T20:15:30.685Z,0.0
2019-04-04T20:18:32.048Z,0.0
2019-04-04T20:21:30.480Z,0.0
2019-04-04T20:24:31.935Z,0.0
2019-04-04T20:27:30.374Z,0.0
2019-04-04T20:30:38.868Z,0.0
2019-04-04T20:33:30.922Z,0.0
2019-04-04T20:36:30.250Z,0.0
2019-04-04T20:39:30.211Z,0.0
2019-04-04T20:42:30.018Z,0.0
2019-04-04T20:45:31.241Z,0.0
2019-04-04T20:48:30.188Z,0.0
2019-04-04T20:51:30.220Z,0.0
2019-04-04T20:54:30.603Z,0.0
2019-04-04T20:57:29.188Z,0.0
2019-04-04T21:00:30.286Z,0.0
2019-04-04T21:03:31.266Z,0.0
2019-04-04T21:06:30.326Z,0.0
2019-04-04T21:09:30.378Z,0.0
2019-04-04T21:12:30.417Z,0.0
2019-04-04T21:15:30.955Z,0.0
2019-04-04T21:18:29.571Z,0.0
2019-04-04T21:21:29.371Z,0.0
2019-04-04T21:24:29.924Z,0.0
2019-04-04T21:27:31.963Z,0.0
2019-04-04T21:30:29.429Z,0.0
2019-04-04T21:33:30.263Z,0.0
2019-04-04T21:36:29.902Z,0.0
2019-04-04T21:39:29.862Z,0.0
2019-04-04T21:42:29.697Z,0.0
2019-04-04T21:45:29.674Z,0.0
2019-04-04T21:48:29.213Z,0.0
2019-04-04T21:54:29.558Z,0.0
2019-04-04T21:57:28.541Z,0.0
2019-04-04T22:00:32.591Z,0.0
2019-04-04T22:03:31.463Z,0.0
2019-04-04T22:06:29.088Z,0.0
2019-04-04T22:09:29.604Z,0.0
2019-04-04T22:12:29.781Z,0.0
2019-04-04T22:15:35.400Z,0.0
2019-04-04T22:18:29.825Z,0.0
2019-04-04T22:21:19.591Z,0.0
2019-04-04T22:24:30.120Z,0.0
2019-04-04T22:27:30.308Z,0.0
2019-04-04T22:30:29.905Z,0.0
2019-04-04T22:33:31.290Z,0.0
2019-04-04T22:36:29.991Z,0.0
2019-04-04T22:39:29.915Z,0.0
2019-04-04T22:42:31.462Z,0.0
2019-04-04T22:45:32.294Z,0.0
2019-04-04T22:48:30.116Z,0.0
2019-04-04T22:51:19.736Z,0.0
2019-04-04T22:54:31.154Z,0.0
2019-04-04T22:57:29.972Z,0.0
2019-04-04T23:00:29.661Z,0.0
2019-04-04T23:03:33.361Z,0.0
2019-04-04T23:06:30.071Z,0.0
2019-04-04T23:09:29.497Z,0.0
2019-04-04T23:12:31.735Z,0.0
2019-04-04T23:15:35.834Z,0.0
2019-04-04T23:18:29.822Z,0.0
2019-04-04T23:21:19.535Z,0.0
2019-04-04T23:24:33.134Z,0.0
2019-04-04T23:27:29.480Z,0.0
2019-04-04T23:30:30.562Z,0.0
2019-04-04T23:33:28.496Z,0.0
2019-04-04T23:36:35.266Z,0.0
2019-04-04T23:39:29.297Z,0.0
2019-04-04T23:42:32.043Z,0.0
2019-04-04T23:45:33.430Z,0.0
2019-04-04T23:48:29.969Z,0.0
2019-04-04T23:51:29.534Z,0.0
2019-04-04T23:54:30.382Z,0.0
2019-04-04T23:57:29.905Z,0.0
